Flight Track Log - Related Links

Times and Time Zones

All times are in EDT time to prevent confusion due to time zone crossing. See the SWA2136 flight status page for this flight to view local times or setup timezone preferences in your user account.

Time Position Orientation Groundspeed Altitude Reporting Facility
EDT Latitude Longitude Course Direction KTS MPH feet Rate Location/Type
Tue 06:39:07 PM 39.8833 -104.6167 90° East 177 204 6,200  Level Denver TRACON
Tue 06:40:07 PM 39.8833 -104.5500 90° East 216 249 7,700 1,800 Climbing Denver TRACON
Tue 06:41:07 PM 39.8833 -104.4500 90° East 280 322 9,800 2,300 Climbing Denver TRACON
Tue 06:42:07 PM 39.8833 -104.3333 91° East 320 368 12,300 2,598 Climbing Denver TRACON
Tue 06:43:14 PM 39.8819 -104.2056 90° East 333 383 15,300 2,646 Climbing Denver Center
Tue 06:44:14 PM 39.8814 -104.0756 89° East 339 390 17,900 2,600 Climbing Denver Center
Tue 06:45:14 PM 39.8828 -103.9431 88° East 355 409 20,500 1,966 Climbing Denver Center
Tue 06:46:13 PM 39.8858 -103.8022 87° East 375 432 21,800 1,765 Climbing Denver Center
Tue 06:47:13 PM 39.8928 -103.6475 85° East 406 467 24,000 2,033 Climbing Denver Center
Tue 06:48:14 PM 39.9033 -103.4903 85° East 426 490 25,900 1,835 Climbing Denver Center
Tue 06:49:14 PM 39.9139 -103.3353 85° East 431 496 27,700 1,613 Climbing Denver Center
Tue 06:50:13 PM 39.9242 -103.1886 85° East 442 509 29,100 1,462 Climbing Denver Center
Tue 06:51:13 PM 39.9361 -103.0200 85° East 454 522 30,600 1,686 Climbing Denver Center
Tue 06:52:14 PM 39.9478 -102.8569 89° East 460 529 32,500 1,650 Climbing Denver Center
Tue 06:53:13 PM 39.9506 -102.6861 85° East 460 529 33,900 1,350 Climbing Denver Center
Tue 06:54:14 PM 39.9617 -102.5203 85° East 466 536 35,200 1,289 Climbing Denver Center
Tue 06:55:14 PM 39.9742 -102.3406 80° East 460 529 36,500 908 Climbing Denver Center
Tue 06:56:13 PM 39.9956 -102.1819 79° East 460 529 37,000 252 Climbing Denver Center
Tue 06:57:13 PM 40.0169 -102.0342 80° East 454 522 37,000  Level Denver Center
Tue 06:58:14 PM 40.0414 -101.8589 80° East 448 516 37,000  Level Denver Center
Tue 06:59:14 PM 40.0619 -101.7000 80° East 448 516 37,000  Level Denver Center
Tue 07:00:14 PM 40.0844 -101.5383 80° East 448 516 37,000  Level Denver Center
Tue 07:01:13 PM 40.1050 -101.3903 81° East 448 516 37,000  Level Denver Center
Tue 07:02:14 PM 40.1264 -101.2175 80° East 448 516 37,000  Level Denver Center
Tue 07:03:14 PM 40.1483 -101.0581 81° East 448 516 37,000  Level Denver Center
Tue 07:04:13 PM 40.1661 -100.9097 80° East 448 516 37,000  Level Denver Center
Tue 07:05:13 PM 40.1875 -100.7475 81° East 448 516 37,000  Level Denver Center
Tue 07:06:13 PM 40.2097 -100.5717 74° East 453 521 37,000  Level Denver Center
Tue 07:07:13 PM 40.2433 -100.4133 75° East 448 516 37,000  Level Denver Center
Tue 07:08:14 PM 40.2714 -100.2719 75° East 448 516 37,000  Level Denver Center
Tue 07:09:14 PM 40.3056 -100.1000 76° East 438 504 37,000  Level Denver Center
Tue 07:11:07 PM 40.3575 -99.8219 75° East 478 550 37,000  Level Minneapolis Center
Tue 07:12:07 PM 40.3894 -99.6647 75° East 459 528 37,000  Level Minneapolis Center
Tue 07:13:07 PM 40.4214 -99.5069 76° East 448 516 37,000  Level Minneapolis Center
Tue 07:14:07 PM 40.4508 -99.3492 75° East 448 516 37,000  Level Minneapolis Center
Tue 07:15:06 PM 40.4822 -99.1911 75° East 448 516 37,000  Level Minneapolis Center
Tue 07:16:06 PM 40.5133 -99.0358 76° East 448 516 37,000  Level Minneapolis Center
Tue 07:17:06 PM 40.5472 -98.8561 76° East 454 522 37,000  Level Minneapolis Center
Tue 07:18:07 PM 40.5758 -98.7003 77° East 449 517 37,000  Level Minneapolis Center
Tue 07:19:06 PM 40.6039 -98.5442 76° East 449 517 37,000  Level Minneapolis Center
Tue 07:20:07 PM 40.6344 -98.3828 75° East 449 517 37,000  Level Minneapolis Center
Tue 07:21:07 PM 40.6664 -98.2269 77° East 449 517 37,000  Level Minneapolis Center
Tue 07:22:07 PM 40.6939 -98.0675 76° East 449 517 37,000  Level Minneapolis Center
Tue 07:23:07 PM 40.7236 -97.9083 76° East 449 517 37,000  Level Minneapolis Center
Tue 07:24:07 PM 40.7531 -97.7464 77° East 449 517 37,000  Level Minneapolis Center
Tue 07:25:06 PM 40.7800 -97.5867 77° East 449 517 37,000  Level Minneapolis Center
Tue 07:26:07 PM 40.8092 -97.4217 78° East 449 517 37,000  Level Minneapolis Center
Tue 07:27:07 PM 40.8333 -97.2669 77° East 444 511 37,000  Level Minneapolis Center
Tue 07:28:06 PM 40.8617 -97.1069 78° East 444 511 37,000  Level Minneapolis Center
Tue 07:29:06 PM 40.8878 -96.9467 78° East 444 511 37,000  Level Minneapolis Center
Tue 07:30:07 PM 40.9136 -96.7892 79° East 444 511 37,000  Level Minneapolis Center
Tue 07:31:06 PM 40.9369 -96.6314 79° East 444 511 37,000  Level Minneapolis Center
Tue 07:32:06 PM 40.9603 -96.4706 80° East 444 511 37,000  Level Minneapolis Center
Tue 07:33:07 PM 40.9814 -96.3122 80° East 444 511 37,000  Level Minneapolis Center
Tue 07:34:07 PM 41.0022 -96.1486 80° East 444 511 37,000  Level Minneapolis Center
Tue 07:35:06 PM 41.0247 -95.9847 80° East 444 511 37,000  Level Minneapolis Center
Tue 07:36:06 PM 41.0472 -95.8208 81° East 444 511 37,000  Level Minneapolis Center
Tue 07:37:07 PM 41.0672 -95.6594 80° East 444 511 37,000  Level Minneapolis Center
Tue 07:38:07 PM 41.0869 -95.5089 80° East 452 520 37,000  Level Minneapolis Center
Tue 07:39:07 PM 41.1086 -95.3472 80° East 452 520 37,000  Level Minneapolis Center
Tue 07:40:06 PM 41.1300 -95.1856 81° East 446 513 37,000  Level Minneapolis Center
Tue 07:41:07 PM 41.1492 -95.0239 81° East 446 513 37,000  Level Minneapolis Center
Tue 07:42:06 PM 41.1681 -94.8592 82° East 446 513 37,000  Level Minneapolis Center
Tue 07:43:07 PM 41.1844 -94.6969 82° East 446 513 37,000  Level Minneapolis Center
Tue 07:44:06 PM 41.2031 -94.5294 82° East 446 513 37,000  Level Minneapolis Center
Tue 07:45:07 PM 41.2211 -94.3644 82° East 446 513 37,000  Level Minneapolis Center
Tue 07:46:06 PM 41.2392 -94.1994 82° East 446 513 37,000  Level Minneapolis Center
Tue 07:48:18 PM 41.2794 -93.8156 83° East 448 516 37,000  Level Chicago Center
Tue 07:49:18 PM 41.2939 -93.6617 83° East 453 521 37,000  Level Chicago Center
Tue 07:50:18 PM 41.3106 -93.4914 83° East 460 529 37,000  Level Chicago Center
Tue 07:51:18 PM 41.3267 -93.3264 83° East 460 529 37,000  Level Chicago Center
Tue 07:52:18 PM 41.3428 -93.1586 84° East 460 529 37,000  Level Chicago Center
Tue 07:53:18 PM 41.3569 -92.9825 83° East 465 535 37,000  Level Chicago Center
Tue 07:54:18 PM 41.3725 -92.8172 83° East 460 529 37,000  Level Chicago Center
Tue 07:55:18 PM 41.3881 -92.6464 82° East 460 529 37,000  Level Chicago Center
Tue 07:56:18 PM 41.4053 -92.4783 79° East 460 529 37,000  Level Chicago Center
Tue 07:57:18 PM 41.4311 -92.2914 77° East 465 535 37,000  Level Chicago Center
Tue 07:58:18 PM 41.4581 -92.1317 78° East 460 529 37,000  Level Chicago Center
Tue 07:59:18 PM 41.4847 -91.9639 76° East 455 524 37,000  Level Chicago Center
Tue 08:00:18 PM 41.5156 -91.8014 75° East 448 516 37,000  Level Chicago Center
Tue 08:01:18 PM 41.5481 -91.6417 77° East 448 516 37,000  Level Chicago Center
Tue 08:02:18 PM 41.5761 -91.4789 82° East 448 516 37,000  Level Chicago Center
Tue 08:03:18 PM 41.5939 -91.3128 82° East 448 516 37,000  Level Chicago Center
Tue 08:04:18 PM 41.6111 -91.1439 82° East 453 521 37,000  Level Chicago Center
Tue 08:05:18 PM 41.6283 -90.9750 83° East 453 521 37,000  Level Chicago Center
Tue 08:06:18 PM 41.6428 -90.8169 82° East 467 537 37,000 150 Level Chicago Center
Tue 08:07:18 PM 41.6594 -90.6478 82° East 467 537 37,300 900 Climbing Chicago Center
Tue 08:08:18 PM 41.6781 -90.4647 83° East 462 532 38,800 850 Climbing Chicago Center
Tue 08:09:18 PM 41.6942 -90.2953 82° East 462 532 39,000 100 Climbing Chicago Center
Tue 08:10:18 PM 41.7122 -90.1231 88° East 462 532 39,000  Level Chicago Center
Tue 08:11:18 PM 41.7172 -89.9508 93° East 462 532 39,000  Level Chicago Center
Tue 08:12:18 PM 41.7097 -89.7811 94° East 456 525 39,000  Level Chicago Center
Tue 08:13:18 PM 41.7000 -89.6058 95° East 461 531 39,000  Level Chicago Center
Tue 08:14:18 PM 41.6897 -89.4389 93° East 456 525 39,000  Level Chicago Center
Tue 08:15:18 PM 41.6833 -89.2636 92° East 462 532 39,000  Level Chicago Center
Tue 08:16:18 PM 41.6789 -89.0942 91° East 462 532 39,000  Level Chicago Center
Tue 08:17:18 PM 41.6764 -88.9161 92° East 462 532 39,000  Level Chicago Center
Tue 08:18:18 PM 41.6714 -88.7383 91° East 462 532 39,000  Level Chicago Center
Tue 08:19:18 PM 41.6683 -88.5606 92° East 467 537 39,000  Level Chicago Center
Tue 08:20:18 PM 41.6647 -88.3856 90° East 467 537 39,000  Level Chicago Center
Tue 08:21:30 PM 41.6653 -88.2075 83° East 472 543 39,000  Level Chicago Center
Tue 08:22:30 PM 41.6858 -87.9931 83° East 477 549 39,000  Level Chicago Center
Tue 08:23:30 PM 41.7022 -87.8147 83° East 482 555 39,000  Level Chicago Center
Tue 08:24:30 PM 41.7186 -87.6364 82° East 482 555 39,000  Level Chicago Center
Tue 08:25:42 PM 41.7367 -87.4578 83° East 482 555 39,000  Level Chicago Center
Tue 08:26:42 PM 41.7558 -87.2428 83° East 482 555 39,000  Level Chicago Center
Tue 08:27:42 PM 41.7711 -87.0614 84° East 482 555 39,000  Level Chicago Center
Tue 08:28:42 PM 41.7861 -86.8825 83° East 482 555 39,000  Level Chicago Center
Tue 08:29:42 PM 41.8028 -86.6981 83° East 482 555 39,000  Level Chicago Center
Tue 08:30:42 PM 41.8178 -86.5331 83° East 487 560 39,000  Level Chicago Center
Tue 08:31:42 PM 41.8339 -86.3511 84° East 482 555 39,000  Level Chicago Center
Tue 08:32:42 PM 41.8494 -86.1553 85° East 482 555 39,000  Level Chicago Center
Tue 08:33:42 PM 41.8611 -85.9789 83° East 482 555 39,000  Level Chicago Center
Tue 08:34:42 PM 41.8767 -85.8025 84° East 482 555 39,000  Level Chicago Center
Tue 08:36:49 PM 41.9053 -85.4331 85° East 478 550 39,000  Level Cleveland Center
Tue 08:37:49 PM 41.9161 -85.2719 85° East 478 550 39,000  Level Cleveland Center
Tue 08:38:49 PM 41.9275 -85.0967 85° East 478 550 39,000  Level Cleveland Center
Tue 08:39:49 PM 41.9386 -84.9161 85° East 478 550 39,000  Level Cleveland Center
Tue 08:41:00 PM 41.9492 -84.7408 86° East 469 540 39,000  Level Cleveland Center
Tue 08:42:01 PM 41.9614 -84.5097 84° East 474 545 39,000  Level Cleveland Center
Tue 08:43:01 PM 41.9758 -84.3317 86° East 474 545 39,000  Level Cleveland Center
Tue 08:44:01 PM 41.9856 -84.1592 84° East 469 540 39,000  Level Cleveland Center
Tue 08:45:01 PM 41.9994 -83.9781 85° East 480 552 39,000  Level Cleveland Center
Tue 08:46:01 PM 42.0106 -83.8028 64° Northeast 474 545 39,000  Level Cleveland Center
Tue 08:47:01 PM 42.0672 -83.6433 60° Northeast 474 545 39,000  Level Cleveland Center
Tue 08:48:01 PM 42.1339 -83.4869 60° Northeast 474 545 39,000  Level Cleveland Center
Tue 08:49:01 PM 42.2022 -83.3275 61° Northeast 480 552 39,000  Level Cleveland Center
Tue 08:50:01 PM 42.2664 -83.1703 63° Northeast 474 545 39,000  Level Cleveland Center
Tue 08:51:01 PM 42.3261 -83.0125 85° East 474 545 39,000  Level Cleveland Center
Tue 08:52:01 PM 42.3381 -82.8333 85° East 469 540 39,000  Level Cleveland Center
Tue 08:53:01 PM 42.3497 -82.6539 86° East 469 540 39,000  Level Cleveland Center
Tue 08:54:01 PM 42.3589 -82.4939 85° East 469 540 39,000  Level Cleveland Center
Tue 08:55:01 PM 42.3700 -82.3172 84° East 482 555 39,000  Level Cleveland Center
Tue 08:56:01 PM 42.3831 -82.1375 86° East 477 549 39,000  Level Cleveland Center
Tue 08:57:01 PM 42.3914 -81.9636 85° East 477 549 39,000  Level Cleveland Center
Tue 08:58:01 PM 42.4019 -81.7839 86° East 477 549 39,000  Level Cleveland Center
Tue 08:59:00 PM 42.4119 -81.5900 87° East 477 549 39,000  Level Cleveland Center
Tue 09:00:01 PM 42.4197 -81.4072 86° East 477 549 39,000  Level Cleveland Center
Tue 09:01:01 PM 42.4292 -81.2300 86° East 477 549 39,000  Level Cleveland Center
Tue 09:02:00 PM 42.4383 -81.0531 87° East 482 555 39,000  Level Cleveland Center
Tue 09:03:01 PM 42.4453 -80.8675 87° East 480 552 39,000  Level Cleveland Center
Tue 09:04:01 PM 42.4519 -80.6900 86° East 474 545 39,000  Level Cleveland Center
Tue 09:05:01 PM 42.4603 -80.5100 87° East 474 545 39,000  Level Cleveland Center
Tue 09:06:12 PM 42.4661 -80.3525 87° East 481 554 39,000  Level Cleveland Center
Tue 09:07:12 PM 42.4739 -80.1158 86° East 476 548 39,000  Level Cleveland Center
Tue 09:08:13 PM 42.4833 -79.9328 88° East 476 548 39,000  Level Cleveland Center
Tue 09:09:13 PM 42.4886 -79.7553 87° East 476 548 39,000  Level Cleveland Center
Tue 09:10:13 PM 42.4953 -79.5722 88° East 476 548 39,000  Level Cleveland Center
Tue 09:11:12 PM 42.5003 -79.4117 88° East 476 548 39,000  Level Cleveland Center
Tue 09:12:13 PM 42.5044 -79.2314 88° East 482 555 39,000 -198 Level Cleveland Center
Tue 09:13:13 PM 42.5103 -79.0311 87° East 477 549 38,600 -700 Descending Cleveland Center
Tue 09:14:13 PM 42.5161 -78.8536 88° East 477 549 37,600 -958 Descending Cleveland Center
Tue 09:15:12 PM 42.5197 -78.6900 88° East 477 549 36,700 -908 Descending Cleveland Center
Tue 09:16:12 PM 42.5250 -78.5125 88° East 477 549 35,800 -843 Descending Cleveland Center
Tue 09:17:13 PM 42.5300 -78.3292 89° East 478 550 35,000 -397 Descending Cleveland Center
Tue 09:18:13 PM 42.5325 -78.1458 88° East 483 556 35,000  Level Cleveland Center
Tue 09:19:13 PM 42.5367 -77.9597 89° East 488 562 35,000  Level Cleveland Center
Tue 09:20:13 PM 42.5403 -77.7622 92° East 488 562 35,000  Level Cleveland Center
Tue 09:21:13 PM 42.5356 -77.5764 92° East 481 554 35,000  Level Cleveland Center
Tue 09:23:26 PM 42.5267 -77.1797 90° East 504 580 35,000  Level Boston Center
Tue 09:24:26 PM 42.5258 -76.9964 93° East 498 573 35,000  Level Boston Center
Tue 09:25:26 PM 42.5175 -76.7844 91° East 498 573 35,000  Level Boston Center
Tue 09:26:26 PM 42.5139 -76.6008 93° East 498 573 35,000  Level Boston Center
Tue 09:27:26 PM 42.5078 -76.4203 91° East 493 567 35,000  Level Boston Center
Tue 09:28:26 PM 42.5067 -76.2681 95° East 493 567 35,000  Level Boston Center
Tue 09:29:26 PM 42.4944 -76.0700 93° East 493 567 35,000 -400 Level Boston Center
Tue 09:30:26 PM 42.4878 -75.8839 92° East 493 567 34,200 -850 Descending Boston Center
Tue 09:31:26 PM 42.4828 -75.6975 93° East 493 567 33,300 -600 Descending Boston Center
Tue 09:32:26 PM 42.4756 -75.5114 93° East 493 567 33,000 -1,000 Descending Boston Center
Tue 09:33:26 PM 42.4681 -75.3253 91° East 493 567 31,300 -2,000 Descending Boston Center
Tue 09:34:26 PM 42.4661 -75.1478 87° East 488 562 29,000 -2,250 Descending Boston Center
Tue 09:35:26 PM 42.4722 -74.9706 89° East 474 545 26,800 -2,200 Descending Boston Center
Tue 09:36:26 PM 42.4739 -74.7992 88° East 467 537 24,600 -1,900 Descending Boston Center
Tue 09:37:26 PM 42.4772 -74.6358 89° East 446 513 23,000 -1,250 Descending Boston Center
Tue 09:38:26 PM 42.4800 -74.4811 89° East 427 491 22,100 -1,000 Descending Boston Center
Tue 09:39:26 PM 42.4828 -74.3150 93° East 414 476 21,000 -1,050 Descending Boston Center
Tue 09:40:26 PM 42.4769 -74.1656 104° East 402 463 20,000 -1,050 Descending Boston Center
Tue 09:41:26 PM 42.4500 -74.0186 104° East 397 457 18,900 -1,000 Descending Boston Center
Tue 09:42:26 PM 42.4247 -73.8800 105° East 389 448 18,000 -1,050 Descending Boston Center
Tue 09:43:26 PM 42.3969 -73.7444 105° East 381 438 16,800 -1,350 Descending Boston Center
Tue 09:44:26 PM 42.3714 -73.6119 106° East 376 433 15,300 -1,676 Descending Boston Center
Tue 09:45:17 PM 42.3475 -73.4992 106° East 368 423 13,700 -1,368 Descending Boston Center
Tue 09:46:42 PM 42.3114 -73.3244 104° East 347 399 12,200 -1,070 Descending Boston Center
Tue 09:47:26 PM 42.2956 -73.2400 110° East 355 409 11,400 -1,041 Descending Boston Center
Tue 09:48:43 PM 42.2528 -73.0853 107° East 330 380 10,100 -916 Descending Boston Center
Tue 09:49:37 PM 42.2303 -72.9839 108° East 301 346 9,400 -939 Descending Boston Center
Tue 09:50:38 PM 42.2058 -72.8831 109° East 295 339 8,300 -1,313 Descending Boston Center
Tue 09:51:45 PM 42.1747 -72.7622 108° East 290 334 6,600 -1,465 Descending Boston Center
Tue 09:52:45 PM 42.1500 -72.6586 115° Southeast 289 333 5,200 -1,240 Descending Boston Center
Tue 09:53:46 PM 42.1189 -72.5689 148° Southeast 257 296 4,100 -1,266 Descending Boston Center
Tue 09:54:53 PM 42.0711 -72.5294 210° Southwest 201 231 2,500 -793 Descending Boston Center
Tue 09:55:47 PM 42.0356 -72.5575 227° Southwest 152 175 2,500 -313 Level Boston Center
Tue 09:56:48 PM 42.0086 -72.5967 220° Southwest 142 163 1,900 -645 Descending Boston Center
Tue 09:57:48 PM 41.9814 -72.6272 220° Southwest 124 143 1,200 -700 Descending Boston Center

Login

Don't have an account? Register now (free) for customized features, flight alerts, and more!